This is the latest recevied weather packets stored in our database for station/object IV3CGM-13. If no packets are shown the sender has not sent any weather packets the latest 10 day(s).
| Time | Temp. | Humidity | Pressure | Rain* | Wind** | Luminosity | Snow |
|---|---|---|---|---|---|---|---|
| 1777120470 | 21.67° C | 41% | 1014.6 hPa | 0 mm | - | 750 W/m² | - |
| 1777119782 | 21.67° C | 42% | 1014.5 hPa | 0 mm | - | 762 W/m² | - |
| 1777119082 | 21.11° C | 44% | 1014.6 hPa | 0 mm | - | 770 W/m² | - |
| 1777118346 | 21.11° C | 44% | 1014.8 hPa | 0 mm | - | 777 W/m² | - |
| 1777117645 | 20.56° C | 45% | 1014.7 hPa | 0 mm | - | 789 W/m² | - |
| 1777116945 | 21.11° C | 43% | 1014.8 hPa | 0 mm | - | 807 W/m² | - |
| 1777116257 | 21.11° C | 43% | 1014.9 hPa | 0 mm | - | 812 W/m² | - |
| 1777115570 | 20.56° C | 46% | 1015 hPa | 0 mm | - | 830 W/m² | - |
| 1777114833 | 20° C | 46% | 1015.1 hPa | 0 mm | - | 828 W/m² | - |
| 1777114133 | 20.56° C | 43% | 1015.2 hPa | 0 mm | - | 826 W/m² | - |
| 1777113444 | 20.56° C | 44% | 1015.4 hPa | 0 mm | - | 819 W/m² | - |
| 1777112757 | 20° C | 47% | 1015.4 hPa | 0 mm | - | 801 W/m² | - |
| 1777112069 | 19.44° C | 48% | 1015.5 hPa | 0 mm | - | 787 W/m² | - |
| 1777111382 | 20° C | 47% | 1015.6 hPa | 0 mm | - | 779 W/m² | - |
| 1777110694 | 20.56° C | 47% | 1015.6 hPa | 0 mm | - | 766 W/m² | - |
| 1777110007 | 20° C | 47% | 1015.7 hPa | 0 mm | - | 750 W/m² | - |
| 1777109307 | 19.44° C | 48% | 1015.8 hPa | 0 mm | - | 728 W/m² | - |
| 1777108619 | 19.44° C | 48% | 1015.9 hPa | 0 mm | - | 713 W/m² | - |
| 1777107931 | 19.44° C | 49% | 1015.9 hPa | 0 mm | - | 702 W/m² | - |
| 1777107244 | 18.89° C | 48% | 1016 hPa | 0 mm | - | 677 W/m² | - |
| 1777106507 | 19.44° C | 49% | 1016 hPa | 0 mm | - | 651 W/m² | - |
| 1777105807 | 19.44° C | 48% | 1016 hPa | 0 mm | - | 625 W/m² | - |
| 1777105119 | 18.89° C | 50% | 1016.1 hPa | 0 mm | - | 595 W/m² | - |
| 1777104431 | 18.89° C | 53% | 1016.1 hPa | 0 mm | - | 566 W/m² | - |
| 1777103744 | 17.22° C | 59% | 1016.1 hPa | 0 mm | - | 531 W/m² | - |
* Rain latest hour (hover to see other rain measurements)
** Current wind speed in m/s (hover to see current wind gust speed)